Time;durP1;ratioP1;P1;durP2;ratioP2;P2;SDS_P1;SDS_P2;PMS_P1;PMS_P2;Temp;Humidity;BMP_temperature;BMP_pressure;BME280_temperature;BME280_humidity;BME280_pressure;Samples;Min_cycle;Max_cycle;Signal;HPM_P1;HPM_P2
2022/05/14 00:01:37;;;;;;;1.35;0.70;;;;;;;14.18;52.51;97688.97;4910098;28;20275;-77
2022/05/14 00:04:07;;;;;;;1.50;0.65;;;;;;;14.11;52.83;97688.41;4933688;28;20287;-77
2022/05/14 00:06:36;;;;;;;2.13;0.68;;;;;;;14.02;52.85;97675.78;4915520;28;20201;-77
2022/05/14 00:09:06;;;;;;;2.05;0.60;;;;;;;13.98;53.25;97690.44;4899874;28;20308;-77
2022/05/14 00:14:22;;;;;;;1.83;0.80;;;;;;;13.86;53.91;97689.81;4918659;28;20696;-77
2022/05/14 00:16:51;;;;;;;1.73;0.73;;;;;;;13.75;54.06;97686.34;4932269;28;20144;-78
2022/05/14 00:19:18;;;;;;;2.10;0.80;;;;;;;13.67;54.35;97679.78;4901415;28;20364;-78
2022/05/14 00:21:45;;;;;;;3.20;0.93;;;;;;;13.72;54.18;97680.84;4914042;28;20648;-78
2022/05/14 00:24:10;;;;;;;2.17;1.05;;;;;;;13.62;54.59;97671.91;4913427;28;20286;-77
2022/05/14 00:26:38;;;;;;;2.03;0.80;;;;;;;13.51;54.39;97675.47;4921834;28;20314;-78
2022/05/14 00:29:05;;;;;;;2.33;1.10;;;;;;;13.51;54.49;97672.06;4916715;28;20353;-78
2022/05/14 00:31:32;;;;;;;2.20;0.68;;;;;;;13.50;54.90;97668.66;4916096;28;20195;-77
2022/05/14 00:33:58;;;;;;;2.10;0.95;;;;;;;13.48;54.68;97675.97;4883044;28;20210;-77
2022/05/14 00:36:24;;;;;;;2.53;1.20;;;;;;;13.44;55.35;97673.06;4915943;28;20218;-77
2022/05/14 00:38:51;;;;;;;0.98;0.73;;;;;;;13.39;55.44;97673.03;4913882;28;20176;-78
2022/05/14 00:41:17;;;;;;;0.98;0.60;;;;;;;13.41;54.94;97672.78;4913484;28;20249;-78
2022/05/14 00:43:50;;;;;;;1.85;1.25;;;;;;;13.32;54.82;97666.44;4897686;28;20238;-78
2022/05/14 00:46:24;;;;;;;2.47;0.82;;;;;;;13.34;54.81;97672.97;4898848;28;20160;-78
2022/05/14 00:48:51;;;;;;;2.42;0.60;;;;;;;13.33;54.50;97668.00;4914130;28;20409;-78
2022/05/14 00:51:20;;;;;;;1.63;0.80;;;;;;;13.26;55.03;97676.00;4915396;28;20076;-77
2022/05/14 00:53:50;;;;;;;3.05;0.85;;;;;;;13.20;55.15;97672.56;4914131;28;20209;-77
2022/05/14 00:56:19;;;;;;;1.33;0.70;;;;;;;13.16;55.62;97668.91;4899326;28;20206;-78
2022/05/14 00:59:13;;;;;;;0.77;0.65;;;;;;;13.10;55.29;97672.47;4898247;28;20284;-78
2022/05/14 01:01:40;;;;;;;1.95;0.80;;;;;;;13.13;55.51;97677.22;4909136;28;20236;-78
2022/05/14 01:04:07;;;;;;;2.13;0.70;;;;;;;13.07;56.00;97675.59;4918252;28;20218;-78
2022/05/14 01:06:35;;;;;;;2.38;0.60;;;;;;;13.00;56.45;97670.56;4915728;28;20588;-78
2022/05/14 01:09:04;;;;;;;1.65;0.55;;;;;;;13.05;55.78;97667.22;4915268;28;20171;-78
2022/05/14 01:11:31;;;;;;;1.52;0.95;;;;;;;13.05;56.16;97681.06;4918458;28;20281;-78
2022/05/14 01:13:57;;;;;;;2.22;0.60;;;;;;;13.13;55.54;97666.00;4916405;28;20163;-78
2022/05/14 01:16:23;;;;;;;1.48;0.63;;;;;;;13.13;55.55;97673.84;4915797;28;20235;-78
2022/05/14 01:18:49;;;;;;;1.60;0.52;;;;;;;13.14;55.61;97670.94;4917045;28;20772;-78
2022/05/14 01:21:27;;;;;;;1.90;1.38;;;;;;;12.85;55.67;97668.59;4899996;28;20245;-77
2022/05/14 01:26:47;;;;;;;3.33;1.05;;;;;;;12.91;56.03;97670.22;4914124;28;20183;-78
2022/05/14 01:29:22;;;;;;;1.98;0.70;;;;;;;12.85;56.31;97675.63;4927751;28;20258;-78
2022/05/14 01:31:49;;;;;;;2.65;0.65;;;;;;;12.83;56.06;97665.44;4902869;28;20202;-78
2022/05/14 01:34:23;;;;;;;2.25;1.13;;;;;;;12.73;56.76;97666.13;4900341;28;20659;-78
2022/05/14 01:36:49;;;;;;;3.35;0.98;;;;;;;12.83;56.21;97670.66;4916804;28;20517;-78
2022/05/14 01:39:15;;;;;;;2.88;0.70;;;;;;;12.84;56.90;97668.84;4903671;28;20187;-78
2022/05/14 01:41:41;;;;;;;1.65;0.95;;;;;;;12.79;56.75;97663.56;4879777;28;20140;-78
2022/05/14 01:44:07;;;;;;;1.08;0.70;;;;;;;12.76;56.87;97664.84;4899732;28;20233;-78
2022/05/14 01:46:33;;;;;;;1.50;0.82;;;;;;;12.74;56.44;97666.91;4932666;28;20285;-78
2022/05/14 01:48:58;;;;;;;2.55;0.90;;;;;;;12.66;56.95;97660.31;4915335;28;20195;-78
2022/05/14 01:51:25;;;;;;;3.80;0.82;;;;;;;12.69;56.62;97661.63;4916979;28;20396;-78
2022/05/14 01:53:52;;;;;;;2.15;0.73;;;;;;;12.67;56.79;97653.25;4930536;28;20188;-78
2022/05/14 01:56:18;;;;;;;1.52;0.75;;;;;;;12.77;56.77;97661.22;4914901;28;20734;-78
2022/05/14 01:58:44;;;;;;;1.20;0.60;;;;;;;12.68;56.95;97653.03;4914400;28;20306;-78
2022/05/14 02:01:36;;;;;;;1.50;0.73;;;;;;;12.39;57.45;97662.88;4933603;28;20147;-78
2022/05/14 02:04:14;;;;;;;3.92;0.90;;;;;;;12.47;56.61;97659.03;4914653;28;20270;-78
2022/05/14 02:06:42;;;;;;;1.27;0.60;;;;;;;12.54;56.73;97650.00;4915448;28;20264;-78
2022/05/14 02:09:10;;;;;;;2.13;0.73;;;;;;;12.49;56.90;97649.13;4915182;28;20224;-78
2022/05/14 02:11:37;;;;;;;2.08;1.02;;;;;;;12.47;57.06;97646.00;4914945;28;20289;-78
2022/05/14 02:14:03;;;;;;;1.10;0.65;;;;;;;12.40;57.05;97654.00;4933354;28;20167;-78
2022/05/14 02:16:28;;;;;;;1.23;0.82;;;;;;;12.38;57.60;97652.69;4899623;28;20183;-78
2022/05/14 02:18:54;;;;;;;1.75;0.82;;;;;;;12.30;57.52;97651.28;4915488;28;20203;-78
2022/05/14 02:21:24;;;;;;;3.47;0.70;;;;;;;12.28;57.59;97642.91;4899460;28;20223;-78
2022/05/14 02:23:53;;;;;;;2.40;0.77;;;;;;;12.20;57.32;97648.53;4910629;28;20245;-78
2022/05/14 02:26:20;;;;;;;0.98;0.70;;;;;;;12.24;57.14;97647.03;4914620;28;20644;-78
2022/05/14 02:28:46;;;;;;;1.35;0.82;;;;;;;12.25;57.58;97648.59;4916000;28;20189;-78
2022/05/14 02:31:12;;;;;;;1.50;0.70;;;;;;;12.16;57.85;97645.63;4898292;28;20274;-78
2022/05/14 02:33:38;;;;;;;1.25;0.88;;;;;;;12.14;58.16;97639.88;4899188;28;20757;-78
2022/05/14 02:36:04;;;;;;;1.20;0.77;;;;;;;12.14;57.49;97639.88;4930676;28;20277;-78
2022/05/14 02:38:32;;;;;;;1.88;0.60;;;;;;;12.12;58.19;97644.56;4915229;28;20360;-78
2022/05/14 02:40:58;;;;;;;1.30;0.60;;;;;;;12.06;57.91;97648.91;4883764;28;20281;-78
2022/05/14 02:43:25;;;;;;;3.95;0.90;;;;;;;12.12;58.09;97650.56;4910729;28;20403;-79
2022/05/14 02:45:50;;;;;;;2.95;1.00;;;;;;;12.06;58.05;97648.13;4912589;28;20281;-78
2022/05/14 02:48:16;;;;;;;1.77;1.00;;;;;;;12.01;58.27;97659.28;4911397;28;20241;-78
2022/05/14 02:50:42;;;;;;;2.35;1.00;;;;;;;12.06;58.13;97648.91;4898563;28;20210;-78
2022/05/14 02:53:07;;;;;;;3.05;0.95;;;;;;;12.06;58.25;97648.91;4896334;28;20293;-78
2022/05/14 02:55:33;;;;;;;3.40;1.27;;;;;;;12.04;58.24;97658.78;4896587;28;20742;-78
2022/05/14 02:57:58;;;;;;;1.65;0.95;;;;;;;12.01;58.19;97656.66;4912042;28;20105;-78
2022/05/14 03:00:24;;;;;;;2.22;0.90;;;;;;;12.11;57.86;97658.63;4880232;28;20152;-79
2022/05/14 03:02:50;;;;;;;1.63;0.82;;;;;;;12.08;57.68;97656.50;4912025;28;20181;-78
2022/05/14 03:05:17;;;;;;;3.00;1.00;;;;;;;12.19;57.05;97663.44;4911247;28;20202;-79
2022/05/14 03:07:43;;;;;;;2.30;1.13;;;;;;;12.13;57.61;97656.56;4895204;28;20209;-78
2022/05/14 03:10:09;;;;;;;1.25;0.80;;;;;;;12.02;57.59;97652.25;4880044;28;20730;-79
2022/05/14 03:12:34;;;;;;;2.95;0.82;;;;;;;12.10;57.31;97667.50;4895990;28;20767;-79
2022/05/14 03:15:05;;;;;;;1.75;0.68;;;;;;;12.04;57.39;97655.41;4905495;28;20163;-79
2022/05/14 03:17:34;;;;;;;1.98;1.00;;;;;;;11.92;57.74;97660.72;4922820;28;20736;-79
2022/05/14 03:20:00;;;;;;;5.25;1.30;;;;;;;11.84;57.67;97663.72;4895398;28;20224;-79
2022/05/14 03:22:25;;;;;;;1.23;0.90;;;;;;;11.70;58.67;97658.81;4894241;28;20354;-78
2022/05/14 03:24:51;;;;;;;2.15;0.93;;;;;;;11.68;58.40;97671.31;4911939;28;20210;-78
2022/05/14 03:27:17;;;;;;;4.63;1.45;;;;;;;11.80;57.77;97666.00;4927786;28;20171;-79
2022/05/14 03:29:42;;;;;;;1.48;0.98;;;;;;;11.69;58.13;97667.69;4926997;28;20206;-78
2022/05/14 03:32:08;;;;;;;2.90;0.82;;;;;;;11.61;58.50;97665.47;4926651;28;20208;-78
2022/05/14 03:34:33;;;;;;;1.40;0.80;;;;;;;11.58;59.15;97673.78;4926951;28;20171;-78
2022/05/14 03:37:00;;;;;;;2.40;0.90;;;;;;;11.57;58.98;97670.38;4910285;28;20272;-78
2022/05/14 03:39:25;;;;;;;4.55;0.77;;;;;;;11.54;59.12;97664.84;4910664;28;20663;-78
2022/05/14 03:41:51;;;;;;;2.45;1.00;;;;;;;11.49;59.69;97665.56;4894329;28;20199;-78
2022/05/14 03:44:17;;;;;;;1.90;0.95;;;;;;;11.50;59.39;97664.53;4927514;28;20214;-78
2022/05/14 03:46:42;;;;;;;1.52;0.50;;;;;;;11.65;58.66;97666.56;4910572;28;20241;-79
2022/05/14 03:49:08;;;;;;;1.80;1.10;;;;;;;11.65;58.67;97666.56;4895147;28;20218;-78
2022/05/14 03:51:33;;;;;;;1.70;1.10;;;;;;;11.56;59.55;97662.78;4912613;28;20364;-78
2022/05/14 03:53:59;;;;;;;2.47;1.02;;;;;;;11.57;59.04;97675.59;4893414;28;20160;-79
2022/05/14 03:56:25;;;;;;;1.80;1.17;;;;;;;11.54;59.58;97670.84;4891287;28;20168;-78
2022/05/14 03:58:50;;;;;;;1.52;0.80;;;;;;;11.54;59.61;97676.06;4907273;28;20202;-78
2022/05/14 04:01:16;;;;;;;1.35;0.85;;;;;;;11.59;59.85;97675.38;4875811;28;20172;-78
2022/05/14 04:03:41;;;;;;;2.10;1.08;;;;;;;11.56;59.95;97681.06;4909351;28;20210;-78
2022/05/14 04:06:07;;;;;;;2.05;1.10;;;;;;;11.62;59.61;97680.91;4902579;28;20299;-79
2022/05/14 04:08:33;;;;;;;2.78;0.90;;;;;;;11.58;59.89;97682.41;4927644;28;20281;-78
2022/05/14 04:11:02;;;;;;;2.65;1.10;;;;;;;11.60;59.54;97671.72;4895555;28;20103;-79
2022/05/14 04:13:28;;;;;;;2.20;0.90;;;;;;;11.59;60.30;97673.53;4895177;28;20627;-78
2022/05/14 04:15:53;;;;;;;1.10;0.88;;;;;;;11.66;59.89;97678.59;4879196;28;20313;-79
2022/05/14 04:18:24;;;;;;;1.90;0.90;;;;;;;11.74;59.69;97669.59;4903704;28;20285;-79
2022/05/14 04:20:58;;;;;;;1.33;0.90;;;;;;;11.58;60.04;97671.97;4911139;28;20281;-78
2022/05/14 04:23:25;;;;;;;1.90;0.80;;;;;;;11.75;60.19;97678.97;4909846;28;20325;-78
2022/05/14 04:25:52;;;;;;;2.70;1.00;;;;;;;11.83;60.13;97683.03;4909977;28;20231;-79
2022/05/14 04:28:18;;;;;;;1.25;0.85;;;;;;;11.84;60.08;97684.59;4893985;28;20225;-78
2022/05/14 04:30:45;;;;;;;1.83;0.77;;;;;;;11.85;60.00;97679.13;4910903;28;20247;-79
2022/05/14 04:33:11;;;;;;;1.67;0.82;;;;;;;11.93;59.74;97672.75;4894797;28;20778;-78
2022/05/14 04:35:37;;;;;;;1.27;0.90;;;;;;;12.01;59.60;97672.31;4913542;28;20253;-79
2022/05/14 04:38:02;;;;;;;1.65;0.98;;;;;;;12.08;59.12;97674.75;4898535;28;20720;-79
2022/05/14 04:40:28;;;;;;;0.90;0.80;;;;;;;12.12;58.92;97673.25;4898648;28;20202;-79
2022/05/14 04:42:53;;;;;;;1.35;0.75;;;;;;;12.11;59.10;97671.66;4914544;28;20171;-79
2022/05/14 04:45:18;;;;;;;1.60;0.93;;;;;;;12.18;58.67;97670.47;4914870;28;20254;-78
2022/05/14 04:47:44;;;;;;;1.50;0.68;;;;;;;12.20;58.34;97669.44;4930057;28;20241;-79
2022/05/14 04:50:10;;;;;;;1.67;0.70;;;;;;;12.24;58.21;97675.75;4907891;28;20233;-79
2022/05/14 04:52:36;;;;;;;2.70;0.90;;;;;;;12.33;58.13;97666.47;4914231;28;20811;-79
2022/05/14 04:55:01;;;;;;;1.67;0.75;;;;;;;12.40;58.54;97668.91;4910423;28;20311;-79
2022/05/14 04:57:26;;;;;;;2.05;1.00;;;;;;;12.40;58.75;97667.06;4913376;28;20282;-79
2022/05/14 04:59:53;;;;;;;1.83;1.23;;;;;;;12.47;58.42;97675.50;4898002;28;20350;-78
2022/05/14 05:05:04;;;;;;;1.57;0.60;;;;;;;12.53;58.10;97665.91;4900250;28;20210;-79
2022/05/14 05:07:29;;;;;;;2.80;1.55;;;;;;;12.59;57.78;97674.59;4912137;28;20566;-79
2022/05/14 05:09:55;;;;;;;1.52;0.73;;;;;;;12.67;57.71;97679.38;4913598;28;20261;-79
2022/05/14 05:12:20;;;;;;;1.85;0.80;;;;;;;12.73;57.42;97687.03;4897326;28;20299;-79
2022/05/14 05:14:46;;;;;;;3.45;0.80;;;;;;;12.77;57.75;97682.09;4897678;28;20292;-79
2022/05/14 05:17:11;;;;;;;1.67;0.70;;;;;;;12.83;57.83;97681.09;4896519;28;20613;-78
2022/05/14 05:19:37;;;;;;;2.20;0.77;;;;;;;12.92;57.92;97687.50;4913768;28;20202;-79
2022/05/14 05:22:03;;;;;;;2.25;1.00;;;;;;;12.98;57.39;97683.09;4880886;28;20248;-79
2022/05/14 05:24:28;;;;;;;1.25;0.80;;;;;;;13.07;57.64;97693.88;4912255;28;20575;-79
2022/05/14 05:26:53;;;;;;;1.85;1.30;;;;;;;13.15;57.42;97690.84;4912173;28;20201;-79
2022/05/14 05:29:19;;;;;;;3.10;1.25;;;;;;;13.27;57.16;97691.47;4895960;28;20729;-79
2022/05/14 05:31:44;;;;;;;1.42;1.00;;;;;;;13.38;57.16;97696.81;4929167;28;20229;-79
2022/05/14 05:34:09;;;;;;;1.23;0.98;;;;;;;13.42;57.00;97690.84;4911866;28;20343;-79
2022/05/14 05:36:35;;;;;;;1.85;0.93;;;;;;;13.52;57.25;97700.59;4911969;28;20310;-79
2022/05/14 05:39:00;;;;;;;2.55;1.17;;;;;;;13.65;57.30;97702.00;4903261;28;20300;-79
2022/05/14 05:41:26;;;;;;;2.25;0.95;;;;;;;13.69;57.03;97697.81;4892148;28;20297;-78
2022/05/14 05:43:53;;;;;;;2.15;1.15;;;;;;;13.78;57.03;97698.94;4880938;28;20201;-79
2022/05/14 05:46:18;;;;;;;3.50;1.00;;;;;;;13.91;56.99;97702.16;4911439;28;20319;-79
2022/05/14 05:48:44;;;;;;;2.47;1.02;;;;;;;14.07;56.70;97706.47;4897563;28;20616;-78
2022/05/14 05:51:10;;;;;;;1.98;0.90;;;;;;;14.17;56.75;97709.13;4894439;28;20696;-79
2022/05/14 05:59:04;;;;;;;1.95;1.05;;;;;;;14.76;55.59;97707.28;4913381;28;20255;-79
2022/05/14 06:01:30;;;;;;;2.15;1.33;;;;;;;14.96;55.17;97709.19;4912350;28;20600;-78
2022/05/14 06:03:56;;;;;;;2.88;1.33;;;;;;;15.09;54.84;97711.28;4913729;28;20127;-78
2022/05/14 06:06:21;;;;;;;2.28;1.10;;;;;;;15.29;54.74;97712.38;4898101;28;20694;-78
2022/05/14 06:08:50;;;;;;;2.95;1.00;;;;;;;15.47;54.30;97718.94;4896724;28;20206;-78
2022/05/14 06:11:17;;;;;;;3.58;1.88;;;;;;;15.62;53.97;97712.91;4882045;28;20179;-78
2022/05/14 06:13:43;;;;;;;2.13;1.08;;;;;;;15.86;53.60;97713.94;4896126;28;20210;-78
2022/05/14 06:16:12;;;;;;;1.98;1.25;;;;;;;16.07;52.72;97712.09;4881065;28;20640;-79
2022/05/14 06:18:38;;;;;;;1.65;1.38;;;;;;;16.42;52.10;97722.75;4912439;28;20189;-78
2022/05/14 06:21:06;;;;;;;1.63;1.38;;;;;;;16.49;51.75;97720.63;4896270;28;20329;-78
2022/05/14 06:23:32;;;;;;;2.85;1.20;;;;;;;16.79;51.38;97726.78;4894757;28;20640;-78
2022/05/14 06:25:58;;;;;;;2.28;1.10;;;;;;;17.03;50.85;97714.63;4892830;28;20768;-78
2022/05/14 06:28:24;;;;;;;2.17;1.40;;;;;;;17.25;50.51;97729.19;4914283;28;20417;-78
2022/05/14 06:30:50;;;;;;;1.52;1.00;;;;;;;17.55;49.67;97728.19;4911761;28;20274;-78
2022/05/14 06:33:16;;;;;;;3.00;1.17;;;;;;;17.81;48.65;97725.34;4911494;28;20201;-78
2022/05/14 06:35:41;;;;;;;2.70;1.13;;;;;;;18.08;48.02;97722.22;4911996;28;20651;-78
2022/05/14 06:38:07;;;;;;;1.73;1.00;;;;;;;18.42;47.08;97723.16;4912606;28;20586;-78
2022/05/14 06:40:33;;;;;;;3.65;1.00;;;;;;;18.74;45.93;97725.13;4929838;28;20706;-78
2022/05/14 06:42:59;;;;;;;1.33;0.88;;;;;;;18.89;45.74;97724.97;4912308;28;20209;-78
2022/05/14 06:45:25;;;;;;;1.63;1.23;;;;;;;19.20;45.17;97734.31;4911531;28;20665;-78
2022/05/14 06:47:50;;;;;;;2.15;1.02;;;;;;;19.44;44.85;97737.63;4912800;28;20258;-78
2022/05/14 06:50:16;;;;;;;1.48;0.80;;;;;;;19.57;44.83;97736.13;4896468;28;20804;-78
2022/05/14 06:52:43;;;;;;;2.72;1.02;;;;;;;19.50;45.26;97735.72;4928817;28;20256;-78
2022/05/14 06:55:11;;;;;;;2.65;0.80;;;;;;;19.62;44.58;97736.03;4911234;28;20214;-78
2022/05/14 06:57:37;;;;;;;1.75;1.10;;;;;;;19.87;44.28;97742.00;4895048;28;20351;-78
2022/05/14 07:00:05;;;;;;;1.67;0.70;;;;;;;19.91;44.16;97734.25;4907569;28;20249;-78
2022/05/14 07:02:30;;;;;;;3.55;1.10;;;;;;;20.07;44.16;97738.22;4892814;28;20188;-78
2022/05/14 07:07:39;;;;;;;2.83;1.25;;;;;;;20.60;42.85;97734.31;4928476;28;20181;-78
2022/05/14 07:10:05;;;;;;;2.78;1.40;;;;;;;20.67;42.56;97745.28;4912223;28;20214;-78
2022/05/14 07:12:32;;;;;;;2.33;1.20;;;;;;;20.37;43.52;97736.88;4918284;28;20253;-78
2022/05/14 07:14:58;;;;;;;5.28;1.98;;;;;;;20.91;41.68;97744.28;4892352;28;20672;-78
2022/05/14 07:17:25;;;;;;;3.17;1.20;;;;;;;21.05;41.65;97739.72;4880287;28;20268;-77
2022/05/14 07:19:52;;;;;;;3.22;1.20;;;;;;;21.20;41.58;97737.81;4881191;28;20300;-77
2022/05/14 07:22:18;;;;;;;3.95;1.33;;;;;;;21.60;40.56;97737.97;4910583;28;20676;-78
2022/05/14 07:24:44;;;;;;;1.65;1.27;;;;;;;21.91;39.96;97731.91;4912546;28;20277;-78
2022/05/14 07:27:11;;;;;;;5.47;1.80;;;;;;;21.94;40.91;97733.97;4896953;28;20189;-78
2022/05/14 07:29:41;;;;;;;2.53;1.30;;;;;;;22.14;39.98;97738.75;4900080;28;20099;-78
2022/05/14 07:32:15;;;;;;;1.90;1.35;;;;;;;21.87;40.38;97740.47;4894687;28;20198;-77
2022/05/14 07:34:43;;;;;;;1.80;1.58;;;;;;;22.28;39.43;97740.50;4906577;28;20266;-78
2022/05/14 07:37:21;;;;;;;2.25;1.20;;;;;;;22.01;40.33;97742.25;4912484;28;20205;-77
2022/05/14 07:39:54;;;;;;;2.78;0.90;;;;;;;22.24;39.99;97749.06;4932657;28;20264;-77
2022/05/14 07:42:32;;;;;;;2.77;1.37;;;;;;;22.01;40.52;97742.25;4915726;28;20300;-77
2022/05/14 07:45:03;;;;;;;1.30;1.17;;;;;;;22.19;40.06;97743.91;4916326;28;20709;-77
2022/05/14 07:47:31;;;;;;;2.97;1.10;;;;;;;22.57;39.16;97746.06;4914097;28;20291;-77
2022/05/14 07:50:00;;;;;;;1.48;1.00;;;;;;;22.91;37.88;97741.94;4897606;28;20683;-76
2022/05/14 07:52:27;;;;;;;2.15;0.90;;;;;;;22.90;38.83;97743.00;4898889;28;20606;-77
2022/05/14 07:54:54;;;;;;;4.15;1.95;;;;;;;22.79;38.55;97737.22;4898622;28;20323;-77
2022/05/14 07:57:21;;;;;;;1.60;1.02;;;;;;;23.06;37.94;97742.59;4905703;28;20216;-76
2022/05/14 07:59:48;;;;;;;3.90;1.13;;;;;;;22.99;37.69;97743.78;4880335;28;20500;-77
2022/05/14 08:02:26;;;;;;;3.78;1.38;;;;;;;23.30;37.47;97742.88;4903402;28;20100;-77
2022/05/14 08:04:53;;;;;;;3.63;1.23;;;;;;;23.80;36.57;97743.44;4915907;28;20292;-77
2022/05/14 08:07:19;;;;;;;3.28;1.35;;;;;;;24.23;35.93;97746.00;4932052;28;20195;-77
2022/05/14 08:09:46;;;;;;;3.42;1.20;;;;;;;24.36;35.77;97743.44;4931003;28;20190;-76
2022/05/14 08:12:14;;;;;;;3.53;1.10;;;;;;;24.62;34.80;97749.41;4914180;28;20193;-77
2022/05/14 08:14:41;;;;;;;2.63;1.50;;;;;;;24.86;33.65;97740.81;4914352;28;20233;-77
2022/05/14 08:17:11;;;;;;;2.72;1.27;;;;;;;24.77;33.97;97737.41;4933438;28;20142;-77
2022/05/14 08:19:39;;;;;;;3.47;1.27;;;;;;;24.90;33.40;97729.50;4901478;28;20091;-77
2022/05/14 08:24:52;;;;;;;2.00;1.35;;;;;;;24.80;33.88;97738.66;4918346;28;20274;-78
2022/05/14 08:27:20;;;;;;;3.17;1.80;;;;;;;24.78;33.82;97740.84;4920768;28;20155;-77
2022/05/14 08:29:48;;;;;;;2.00;1.10;;;;;;;25.19;34.06;97736.63;4907896;28;20681;-77
2022/05/14 08:32:20;;;;;;;3.38;1.17;;;;;;;25.60;33.83;97735.03;4898602;28;20270;-78
2022/05/14 08:34:50;;;;;;;2.22;1.30;;;;;;;25.83;32.24;97727.44;4902553;28;20612;-78
2022/05/14 08:37:17;;;;;;;2.33;1.10;;;;;;;26.12;31.35;97733.72;4903125;28;20273;-78
2022/05/14 08:39:45;;;;;;;1.85;1.67;;;;;;;26.06;32.04;97735.03;4914855;28;20712;-77
2022/05/14 08:42:13;;;;;;;2.75;1.58;;;;;;;26.24;32.16;97733.72;4901869;28;20570;-77
2022/05/14 08:44:44;;;;;;;3.00;1.55;;;;;;;26.39;30.24;97718.13;4935273;28;20190;-77
2022/05/14 08:47:31;;;;;;;3.05;1.30;;;;;;;26.63;31.33;97725.38;4918326;28;20162;-77
2022/05/14 08:49:59;;;;;;;1.85;0.80;;;;;;;26.93;31.30;97727.78;4917740;28;20580;-77
2022/05/14 08:52:28;;;;;;;2.28;1.92;;;;;;;26.84;30.87;97726.00;4916614;28;20272;-76
2022/05/14 08:55:00;;;;;;;2.58;1.15;;;;;;;26.75;30.98;97721.91;4932868;28;20211;-77
2022/05/14 08:58:02;;;;;;;1.80;1.23;;;;;;;27.02;30.02;97723.06;4900376;28;20208;-78
2022/05/14 09:00:28;;;;;;;3.00;1.20;;;;;;;27.06;30.09;97716.69;4882880;28;20187;-78
2022/05/14 09:02:54;;;;;;;2.60;1.35;;;;;;;27.38;28.57;97710.69;4880669;28;20729;-77
2022/05/14 09:05:28;;;;;;;1.73;1.10;;;;;;;27.54;27.28;97718.75;4881990;28;20198;-77
2022/05/14 09:07:54;;;;;;;;;;;;;;;27.37;27.07;97712.59;4901756;28;20200;-77
2022/05/14 09:10:20;;;;;;;1.48;1.00;;;;;;;27.52;27.04;97712.97;4907866;28;20122;-77
2022/05/14 09:12:59;;;;;;;3.90;1.30;;;;;;;26.43;29.31;97716.38;4932622;28;20636;-76
2022/05/14 09:15:32;;;;;;;3.17;1.95;;;;;;;26.87;28.33;97705.84;4895579;28;20296;-77
2022/05/14 09:18:35;;;;;;;2.90;1.52;;;;;;;26.88;28.87;97718.09;4911106;28;20198;-77
2022/05/14 09:21:25;;;;;;;2.78;1.55;;;;;;;26.87;28.73;97714.66;4799695;29;20600;-77
2022/05/14 09:23:58;;;;;;;1.48;1.38;;;;;;;26.84;27.51;97717.22;4782195;29;20253;-78
2022/05/14 09:26:37;;;;;;;1.85;1.40;;;;;;;25.83;30.42;97716.75;4798610;29;20743;-76
2022/05/14 09:29:26;;;;;;;1.67;1.58;;;;;;;26.03;30.44;97715.16;4790072;29;20198;-77
2022/05/14 09:31:54;;;;;;;2.50;1.70;;;;;;;26.96;28.51;97722.53;4796467;29;20531;-77
2022/05/14 09:34:22;;;;;;;2.10;1.20;;;;;;;27.25;28.05;97721.41;4809029;29;20184;-77
2022/05/14 09:36:51;;;;;;;4.50;1.33;;;;;;;26.74;28.14;97715.03;4814079;29;20107;-76
2022/05/14 09:39:22;;;;;;;3.05;1.58;;;;;;;26.80;27.54;97713.66;4815046;29;20184;-77
2022/05/14 09:41:54;;;;;;;2.00;1.13;;;;;;;26.91;28.30;97720.88;4816512;29;20272;-77
2022/05/14 09:44:24;;;;;;;3.78;1.20;;;;;;;27.24;27.41;97711.84;4815248;29;20244;-77
2022/05/14 09:46:50;;;;;;;2.10;1.33;;;;;;;27.64;27.20;97712.88;4815843;29;20222;-76
2022/05/14 09:49:24;;;;;;;1.95;1.10;;;;;;;27.88;28.05;97722.69;4815076;29;20181;-77
2022/05/14 09:52:04;;;;;;;1.98;1.20;;;;;;;27.81;26.90;97720.59;4806240;29;20227;-78
2022/05/14 09:54:46;;;;;;;1.50;1.02;;;;;;;28.16;27.61;97711.13;4841727;28;20176;-78
2022/05/14 09:57:30;;;;;;;2.97;1.02;;;;;;;27.58;28.38;97708.91;4911236;28;20282;-77
2022/05/14 10:00:21;;;;;;;4.33;1.40;;;;;;;27.87;27.02;97706.97;4931121;28;20292;-77
2022/05/14 10:03:06;;;;;;;1.98;1.10;;;;;;;28.15;25.90;97704.22;4928012;28;20242;-77
2022/05/14 10:05:32;;;;;;;3.58;1.80;;;;;;;28.34;26.63;97712.31;4912900;28;20727;-76
2022/05/14 10:08:20;;;;;;;2.05;1.13;;;;;;;28.43;25.51;97709.44;4913459;28;20327;-77
2022/05/14 10:11:05;;;;;;;2.30;1.40;;;;;;;28.20;26.16;97707.38;4913053;28;20321;-76
2022/05/14 10:13:50;;;;;;;1.87;1.20;;;;;;;28.21;24.88;97706.28;4931009;28;20190;-76
2022/05/14 10:16:34;;;;;;;1.88;1.10;;;;;;;27.97;26.61;97704.56;4913280;28;20189;-76
2022/05/14 10:19:14;;;;;;;1.03;0.90;;;;;;;28.36;25.89;97706.59;4911964;28;20312;-77
2022/05/14 10:22:01;;;;;;;3.17;1.40;;;;;;;28.46;25.25;97707.97;4913597;28;20484;-77
2022/05/14 10:28:09;;;;;;;1.88;1.10;;;;;;;28.37;26.16;97697.44;4897977;28;20214;-76
2022/05/14 10:30:47;;;;;;;2.13;1.75;;;;;;;29.17;25.09;97692.63;4920850;28;20202;-78
2022/05/14 10:33:25;;;;;;;3.95;1.48;;;;;;;29.00;24.87;97695.72;4905318;28;20244;-76
2022/05/14 10:35:59;;;;;;;1.75;1.25;;;;;;;29.08;25.48;97687.44;4895298;28;20206;-76
2022/05/14 10:38:45;;;;;;;1.35;0.90;;;;;;;29.02;24.18;97690.78;4927910;28;20202;-77
2022/05/14 10:41:11;;;;;;;1.30;1.13;;;;;;;29.04;24.67;97689.28;4928462;28;20695;-76
2022/05/14 10:43:49;;;;;;;1.38;1.27;;;;;;;28.91;25.85;97696.69;4907517;28;20187;-76
2022/05/14 10:46:20;;;;;;;2.80;1.17;;;;;;;28.97;27.28;97693.72;4926128;28;20202;-76
2022/05/14 10:48:59;;;;;;;1.35;1.25;;;;;;;29.36;26.35;97688.38;4894100;28;20635;-76
2022/05/14 10:51:29;;;;;;;3.40;1.60;;;;;;;29.48;24.49;97682.84;4909899;28;20758;-77
2022/05/14 10:53:56;;;;;;;3.05;1.50;;;;;;;29.41;24.06;97683.47;4911369;28;20718;-76
2022/05/14 10:56:28;;;;;;;1.00;0.90;;;;;;;29.49;23.31;97673.63;4910829;28;20210;-77
2022/05/14 10:58:59;;;;;;;2.92;1.38;;;;;;;29.41;25.02;97680.03;4910895;28;20687;-77
2022/05/14 11:01:46;;;;;;;1.67;1.10;;;;;;;29.60;23.96;97682.66;4894663;28;20175;-77
2022/05/14 11:04:24;;;;;;;1.30;1.20;;;;;;;28.86;26.15;97678.22;4910432;28;20198;-77
2022/05/14 11:06:56;;;;;;;2.67;1.42;;;;;;;28.70;26.29;97678.28;4885112;28;20633;-76
2022/05/14 11:09:41;;;;;;;1.85;1.35;;;;;;;28.67;25.98;97675.50;4919248;28;20195;-77
2022/05/14 11:12:28;;;;;;;2.05;1.23;;;;;;;28.77;24.86;97673.06;4920507;28;20347;-77
2022/05/14 11:14:56;;;;;;;1.70;1.10;;;;;;;29.22;24.09;97662.84;4918313;28;20446;-77
2022/05/14 11:17:32;;;;;;;2.65;1.35;;;;;;;29.51;24.91;97674.06;4907200;28;20221;-77
2022/05/14 11:20:04;;;;;;;2.22;1.10;;;;;;;29.12;26.41;97666.06;4907182;28;20206;-76
2022/05/14 11:22:32;;;;;;;1.55;1.23;;;;;;;29.06;24.72;97664.78;4907068;28;20316;-77
2022/05/14 11:25:28;;;;;;;1.48;0.95;;;;;;;28.98;23.68;97660.41;4918765;28;20214;-77
2022/05/14 11:27:58;;;;;;;1.88;1.20;;;;;;;28.18;24.21;97666.81;4890038;28;20785;-76
2022/05/14 11:30:40;;;;;;;2.45;1.20;;;;;;;27.96;26.13;97670.13;4907044;28;20320;-76
2022/05/14 11:33:31;;;;;;;2.63;1.10;;;;;;;27.91;25.67;97662.31;4917221;28;20186;-77
2022/05/14 11:35:59;;;;;;;2.30;1.33;;;;;;;27.61;24.88;97663.53;4909630;28;20186;-77
2022/05/14 11:38:27;;;;;;;3.72;1.17;;;;;;;27.42;24.74;97669.56;4909989;28;20171;-77
2022/05/14 11:40:56;;;;;;;1.58;1.13;;;;;;;27.12;25.91;97665.69;4927245;28;20167;-77
2022/05/14 11:43:42;;;;;;;3.45;1.50;;;;;;;27.21;26.23;97663.63;4910447;28;20189;-77
2022/05/14 11:46:32;;;;;;;1.52;0.93;;;;;;;26.99;26.85;97663.06;4890514;28;20223;-77
2022/05/14 11:49:22;;;;;;;3.38;1.20;;;;;;;27.48;27.15;97653.25;4915598;28;20612;-76
2022/05/14 11:51:54;;;;;;;2.33;1.30;;;;;;;27.52;26.40;97654.13;4897817;28;20273;-76
2022/05/14 11:54:36;;;;;;;2.83;1.15;;;;;;;27.83;25.97;97648.78;4901045;28;20722;-76
2022/05/14 11:57:07;;;;;;;2.25;1.20;;;;;;;28.39;25.40;97644.28;4927276;28;20285;-77
2022/05/14 11:59:58;;;;;;;2.10;1.00;;;;;;;29.03;23.59;97638.69;4911249;28;20300;-77
2022/05/14 12:02:41;;;;;;;2.78;1.10;;;;;;;29.35;24.29;97638.53;4895096;28;20276;-77
2022/05/14 12:05:17;;;;;;;3.17;1.17;;;;;;;29.72;22.54;97635.31;4909891;28;20334;-78
2022/05/14 12:07:54;;;;;;;1.90;1.35;;;;;;;29.64;23.45;97637.84;4909663;28;20627;-77
2022/05/14 12:10:49;;;;;;;2.15;1.20;;;;;;;29.81;23.79;97638.53;4928706;28;20198;-78